Time,TemperatureF,DewpointF,PressureIn,WindDirection,WindDirectionDegrees,WindSpeedMPH,WindSpeedGustMPH,Humidity,HourlyPrecipIn,Conditions,Clouds,dailyrainin,SoftwareType,DateUTC
2013-01-31 00:05:00,63.5,59.6,29.50,SSE,153,2.0,7.0,87,0.14,,,0.26,Wunderground v.1.15,2013-01-31 05:05:00,
2013-01-31 00:10:00,62.0,58.1,29.51,South,177,2.0,2.0,87,0.08,,,0.26,Wunderground v.1.15,2013-01-31 05:10:00,
2013-01-31 00:15:00,60.8,56.9,29.50,SSW,202,2.0,7.0,87,0.05,,,0.26,Wunderground v.1.15,2013-01-31 05:15:00,
2013-01-31 00:20:00,60.2,56.6,29.50,ESE,115,1.0,7.0,88,0.00,,,0.26,Wunderground v.1.15,2013-01-31 05:20:00,
2013-01-31 00:30:00,59.0,54.8,29.51,North,11,1.0,7.0,86,0.00,,,0.26,Wunderground v.1.15,2013-01-31 05:30:00,
2013-01-31 00:35:00,58.7,54.2,29.51,South,185,1.0,7.0,85,0.00,,,0.26,Wunderground v.1.15,2013-01-31 05:35:00,
2013-01-31 00:40:00,58.2,53.1,29.51,WSW,255,2.0,2.0,83,0.00,,,0.26,Wunderground v.1.15,2013-01-31 05:40:00,
2013-01-31 00:45:00,57.8,52.7,29.52,SW,215,2.0,7.0,83,0.00,,,0.26,Wunderground v.1.15,2013-01-31 05:45:00,
2013-01-31 00:50:00,57.3,52.2,29.53,WSW,241,2.0,2.0,83,0.00,,,0.27,Wunderground v.1.15,2013-01-31 05:50:00,
2013-01-31 01:00:00,55.6,51.5,29.53,NNW,346,2.0,7.0,86,0.10,,,0.28,Wunderground v.1.15,2013-01-31 06:00:00,
2013-01-31 01:05:00,55.0,51.2,29.53,SSE,167,2.0,7.0,87,0.05,,,0.28,Wunderground v.1.15,2013-01-31 06:05:00,
2013-01-31 01:10:00,54.6,51.1,29.55,South,187,1.0,1.0,88,0.04,,,0.28,Wunderground v.1.15,2013-01-31 06:10:00,
2013-01-31 01:15:00,54.3,51.1,29.55,ESE,103,1.0,7.0,89,0.00,,,0.28,Wunderground v.1.15,2013-01-31 06:15:00,
2013-01-31 01:20:00,54.1,51.2,29.55,SSW,194,0.0,7.0,90,0.00,,,0.29,Wunderground v.1.15,2013-01-31 06:20:00,
2013-01-31 01:25:00,53.9,51.0,29.54,ESE,117,0.0,7.0,90,0.08,,,0.30,Wunderground v.1.15,2013-01-31 06:25:00,
2013-01-31 01:35:00,53.6,51.0,29.54,SSE,159,0.0,7.0,91,0.07,,,0.31,Wunderground v.1.15,2013-01-31 06:35:00,
2013-01-31 01:40:00,53.3,50.7,29.55,SSW,199,0.0,7.0,91,0.07,,,0.31,Wunderground v.1.15,2013-01-31 06:40:00,
2013-01-31 01:45:00,53.1,50.5,29.54,South,172,0.0,7.0,91,0.06,,,0.32,Wunderground v.1.15,2013-01-31 06:45:00,
2013-01-31 01:50:00,52.7,50.1,29.53,SE,138,1.0,1.0,91,0.06,,,0.32,Wunderground v.1.15,2013-01-31 06:50:00,
2013-01-31 01:55:00,52.3,49.8,29.54,SSE,165,1.0,3.0,91,0.06,,,0.33,Wunderground v.1.15,2013-01-31 06:55:00,
2013-01-31 02:05:00,51.8,49.0,29.55,ESE,123,0.0,7.0,90,0.05,,,0.33,Wunderground v.1.15,2013-01-31 07:05:00,
2013-01-31 02:10:00,51.7,48.9,29.55,South,188,0.0,7.0,90,0.00,,,0.33,Wunderground v.1.15,2013-01-31 07:10:00,
2013-01-31 02:15:00,51.5,48.7,29.54,South,173,0.0,7.0,90,0.00,,,0.33,Wunderground v.1.15,2013-01-31 07:15:00,
2013-01-31 02:20:00,51.5,48.7,29.54,SE,142,1.0,1.0,90,0.00,,,0.33,Wunderground v.1.15,2013-01-31 07:20:00,
2013-01-31 02:25:00,51.4,48.6,29.54,South,178,0.0,7.0,90,0.00,,,0.33,Wunderground v.1.15,2013-01-31 07:25:00,
2013-01-31 02:30:00,51.4,48.6,29.54,SSE,158,0.0,7.0,90,0.00,,,0.33,Wunderground v.1.15,2013-01-31 07:30:00,
2013-01-31 02:35:00,51.4,48.6,29.54,SW,223,0.0,7.0,90,0.00,,,0.33,Wunderground v.1.15,2013-01-31 07:35:00,
2013-01-31 02:40:00,51.3,48.5,29.53,South,183,0.0,7.0,90,0.00,,,0.33,Wunderground v.1.15,2013-01-31 07:40:00,
2013-01-31 02:45:00,51.4,48.6,29.54,SSE,159,0.0,7.0,90,0.00,,,0.33,Wunderground v.1.15,2013-01-31 07:45:00,
2013-01-31 02:50:00,51.4,48.3,29.55,South,178,0.0,7.0,89,0.00,,,0.33,Wunderground v.1.15,2013-01-31 07:50:00,
2013-01-31 02:55:00,51.5,48.1,29.54,SW,234,1.0,7.0,88,0.00,,,0.33,Wunderground v.1.15,2013-01-31 07:55:00,
2013-01-31 03:00:00,51.5,48.1,29.55,ESE,110,1.0,1.0,88,0.00,,,0.33,Wunderground v.1.15,2013-01-31 08:00:00,
2013-01-31 03:10:00,51.7,48.0,29.55,SE,141,1.0,7.0,87,0.00,,,0.00,Wunderground v.1.15,2013-01-31 08:10:00,
2013-01-31 03:15:00,51.8,48.1,29.55,South,173,1.0,7.0,87,0.00,,,0.00,Wunderground v.1.15,2013-01-31 08:15:00,
2013-01-31 03:20:00,51.8,47.7,29.55,South,178,1.0,1.0,86,0.00,,,0.00,Wunderground v.1.15,2013-01-31 08:20:00,
2013-01-31 03:25:00,51.8,47.4,29.55,South,190,1.0,7.0,85,0.00,,,0.00,Wunderground v.1.15,2013-01-31 08:25:00,
2013-01-31 03:30:00,51.7,47.3,29.55,South,186,1.0,7.0,85,0.00,,,0.00,Wunderground v.1.15,2013-01-31 08:30:00,
2013-01-31 03:35:00,51.7,47.0,29.55,SSE,161,1.0,7.0,84,0.00,,,0.00,Wunderground v.1.15,2013-01-31 08:35:00,
2013-01-31 03:45:00,51.7,47.0,29.56,South,175,1.0,7.0,84,0.00,,,0.00,Wunderground v.1.15,2013-01-31 08:45:00,
2013-01-31 03:50:00,51.7,47.0,29.56,South,173,1.0,7.0,84,0.00,,,0.00,Wunderground v.1.15,2013-01-31 08:50:00,
2013-01-31 03:55:00,51.5,46.8,29.57,SSE,155,1.0,7.0,84,0.00,,,0.00,Wunderground v.1.15,2013-01-31 08:55:00,
2013-01-31 04:00:00,51.5,46.5,29.57,SSE,160,1.0,1.0,83,0.00,,,0.00,Wunderground v.1.15,2013-01-31 09:00:00,
2013-01-31 04:05:00,51.4,46.4,29.57,SSE,154,1.0,7.0,83,0.00,,,0.00,Wunderground v.1.15,2013-01-31 09:05:00,
2013-01-31 04:15:00,51.3,46.0,29.57,SE,127,1.0,7.0,82,0.00,,,0.00,Wunderground v.1.15,2013-01-31 09:15:00,
2013-01-31 04:20:00,51.2,45.6,29.57,South,174,1.0,1.0,81,0.00,,,0.00,Wunderground v.1.15,2013-01-31 09:20:00,
2013-01-31 04:25:00,51.3,45.3,29.58,South,169,1.0,7.0,80,0.00,,,0.00,Wunderground v.1.15,2013-01-31 09:25:00,
2013-01-31 04:30:00,51.2,45.2,29.59,SE,138,1.0,1.0,80,0.00,,,0.00,Wunderground v.1.15,2013-01-31 09:30:00,
2013-01-31 04:35:00,51.2,45.2,29.59,SE,126,1.0,7.0,80,0.00,,,0.00,Wunderground v.1.15,2013-01-31 09:35:00,
2013-01-31 04:40:00,51.2,45.2,29.59,SSE,163,1.0,7.0,80,0.00,,,0.00,Wunderground v.1.15,2013-01-31 09:40:00,
2013-01-31 04:45:00,51.2,45.2,29.59,SSW,205,1.0,7.0,80,0.00,,,0.00,Wunderground v.1.15,2013-01-31 09:45:00,
2013-01-31 04:50:00,51.1,45.1,29.59,SSW,207,0.0,7.0,80,0.00,,,0.00,Wunderground v.1.15,2013-01-31 09:50:00,
2013-01-31 04:55:00,51.1,45.1,29.60,SSE,168,0.0,7.0,80,0.00,,,0.00,Wunderground v.1.15,2013-01-31 09:55:00,
2013-01-31 05:00:00,51.1,44.8,29.61,SSW,212,1.0,7.0,79,0.00,,,0.00,Wunderground v.1.15,2013-01-31 10:00:00,
2013-01-31 05:05:00,51.1,44.8,29.61,NE,43,1.0,7.0,79,0.00,,,0.00,Wunderground v.1.15,2013-01-31 10:05:00,
2013-01-31 05:10:00,51.2,44.6,29.61,SE,146,1.0,1.0,78,0.00,,,0.00,Wunderground v.1.15,2013-01-31 10:10:00,
2013-01-31 05:20:00,51.1,44.1,29.61,SSE,148,1.0,7.0,77,0.00,,,0.00,Wunderground v.1.15,2013-01-31 10:20:00,
2013-01-31 05:25:00,51.0,43.4,29.62,WSW,249,1.0,7.0,75,0.00,,,0.00,Wunderground v.1.15,2013-01-31 10:25:00,
2013-01-31 05:30:00,50.9,43.3,29.62,SSE,163,1.0,7.0,75,0.00,,,0.00,Wunderground v.1.15,2013-01-31 10:30:00,
2013-01-31 05:35:00,50.7,42.4,29.62,NE,51,1.0,7.0,73,0.00,,,0.00,Wunderground v.1.15,2013-01-31 10:35:00,
2013-01-31 05:40:00,50.5,42.2,29.63,South,173,1.0,7.0,73,0.00,,,0.00,Wunderground v.1.15,2013-01-31 10:40:00,
2013-01-31 05:50:00,50.3,42.0,29.64,East,99,1.0,7.0,73,0.00,,,0.00,Wunderground v.1.15,2013-01-31 10:50:00,
2013-01-31 05:55:00,50.1,41.8,29.64,SW,214,1.0,7.0,73,0.00,,,0.00,Wunderground v.1.15,2013-01-31 10:55:00,
2013-01-31 06:00:00,50.0,41.7,29.64,SSE,154,1.0,1.0,73,0.00,,,0.00,Wunderground v.1.15,2013-01-31 11:00:00,
2013-01-31 06:05:00,49.8,41.5,29.65,NE,41,1.0,7.0,73,0.00,,,0.00,Wunderground v.1.15,2013-01-31 11:05:00,
2013-01-31 06:10:00,49.7,41.0,29.66,South,176,1.0,1.0,72,0.00,,,0.00,Wunderground v.1.15,2013-01-31 11:10:00,
2013-01-31 06:15:00,49.5,40.8,29.66,SSE,149,1.0,7.0,72,0.00,,,0.00,Wunderground v.1.15,2013-01-31 11:15:00,
2013-01-31 06:25:00,49.2,41.3,29.66,West,263,0.0,7.0,74,0.00,,,0.00,Wunderground v.1.15,2013-01-31 11:25:00,
2013-01-31 06:30:00,49.1,41.5,29.67,SE,141,0.0,7.0,75,0.00,,,0.00,Wunderground v.1.15,2013-01-31 11:30:00,
2013-01-31 06:35:00,48.9,41.3,29.67,SSE,163,0.0,7.0,75,0.00,,,0.00,Wunderground v.1.15,2013-01-31 11:35:00,
2013-01-31 06:40:00,48.7,41.5,29.67,SSE,164,0.0,7.0,76,0.00,,,0.00,Wunderground v.1.15,2013-01-31 11:40:00,
2013-01-31 06:45:00,48.5,41.3,29.68,SSE,155,0.0,7.0,76,0.00,,,0.00,Wunderground v.1.15,2013-01-31 11:45:00,
2013-01-31 06:55:00,48.0,40.5,29.68,NE,56,0.0,7.0,75,0.00,,,0.00,Wunderground v.1.15,2013-01-31 11:55:00,
2013-01-31 07:00:00,47.8,40.3,29.69,South,176,0.0,7.0,75,0.00,,,0.00,Wunderground v.1.15,2013-01-31 12:00:00,
2013-01-31 07:05:00,47.6,40.1,29.69,SSE,168,1.0,7.0,75,0.00,,,0.00,Wunderground v.1.15,2013-01-31 12:05:00,
2013-01-31 07:10:00,47.4,39.9,29.69,SSE,161,0.0,7.0,75,0.00,,,0.00,Wunderground v.1.15,2013-01-31 12:10:00,
2013-01-31 07:15:00,47.2,39.7,29.70,SSE,151,0.0,7.0,75,0.00,,,0.00,Wunderground v.1.15,2013-01-31 12:15:00,
2013-01-31 07:25:00,46.9,39.4,29.71,SW,227,0.0,7.0,75,0.00,,,0.00,Wunderground v.1.15,2013-01-31 12:25:00,
2013-01-31 07:30:00,46.8,39.3,29.72,NNE,13,0.0,7.0,75,0.00,,,0.00,Wunderground v.1.15,2013-01-31 12:30:00,
2013-01-31 07:35:00,46.7,39.2,29.73,ESE,110,0.0,7.0,75,0.00,,,0.00,Wunderground v.1.15,2013-01-31 12:35:00,
2013-01-31 07:40:00,46.7,38.9,29.73,SE,138,0.0,7.0,74,0.00,,,0.00,Wunderground v.1.15,2013-01-31 12:40:00,
2013-01-31 07:45:00,46.6,38.8,29.74,NNE,26,0.0,7.0,74,0.00,,,0.00,Wunderground v.1.15,2013-01-31 12:45:00,
2013-01-31 07:55:00,46.5,38.3,29.75,SSE,148,1.0,7.0,73,0.00,,,0.00,Wunderground v.1.15,2013-01-31 12:55:00,
2013-01-31 08:00:00,46.4,38.6,29.76,SSE,164,0.0,7.0,74,0.00,,,0.00,Wunderground v.1.15,2013-01-31 13:00:00,
2013-01-31 08:05:00,46.3,38.5,29.76,North,9,0.0,7.0,74,0.00,,,0.00,Wunderground v.1.15,2013-01-31 13:05:00,
2013-01-31 08:10:00,46.3,38.8,29.76,SW,214,1.0,1.0,75,0.00,,,0.00,Wunderground v.1.15,2013-01-31 13:10:00,
2013-01-31 08:15:00,46.4,38.6,29.76,NNE,19,0.0,7.0,74,0.00,,,0.00,Wunderground v.1.15,2013-01-31 13:15:00,
2013-01-31 08:20:00,46.5,38.7,29.77,WNW,296,0.0,7.0,74,0.00,,,0.00,Wunderground v.1.15,2013-01-31 13:20:00,
2013-01-31 08:30:00,46.5,39.0,29.77,SW,230,0.0,7.0,75,0.00,,,0.00,Wunderground v.1.15,2013-01-31 13:30:00,
2013-01-31 08:35:00,46.5,38.7,29.78,SE,125,0.0,7.0,74,0.00,,,0.00,Wunderground v.1.15,2013-01-31 13:35:00,
2013-01-31 08:40:00,46.5,36.5,29.78,NNW,338,1.0,7.0,68,0.00,,,0.00,Wunderground v.1.15,2013-01-31 13:40:00,
2013-01-31 08:45:00,46.5,35.4,29.79,NW,317,2.0,7.0,65,0.00,,,0.00,Wunderground v.1.15,2013-01-31 13:45:00,
2013-01-31 08:50:00,46.4,34.9,29.79,NNW,342,2.0,2.0,64,0.00,,,0.00,Wunderground v.1.15,2013-01-31 13:50:00,
2013-01-31 09:00:00,46.3,32.7,29.80,North,360,2.0,7.0,59,0.00,,,0.00,Wunderground v.1.15,2013-01-31 14:00:00,
2013-01-31 09:05:00,46.3,32.7,29.81,NNE,32,2.0,7.0,59,0.00,,,0.00,Wunderground v.1.15,2013-01-31 14:05:00,
2013-01-31 09:10:00,46.3,31.9,29.81,NNW,327,1.0,7.0,57,0.00,,,0.00,Wunderground v.1.15,2013-01-31 14:10:00,
2013-01-31 09:15:00,46.5,31.6,29.81,NNW,344,2.0,7.0,56,0.00,,,0.00,Wunderground v.1.15,2013-01-31 14:15:00,
2013-01-31 09:20:00,46.5,30.7,29.81,North,355,2.0,2.0,54,0.00,,,0.00,Wunderground v.1.15,2013-01-31 14:20:00,
2013-01-31 09:30:00,46.4,29.2,29.83,East,79,2.0,2.0,51,0.00,,,0.00,Wunderground v.1.15,2013-01-31 14:30:00,
2013-01-31 09:35:00,46.4,28.8,29.83,NW,324,2.0,7.0,50,0.00,,,0.00,Wunderground v.1.15,2013-01-31 14:35:00,
2013-01-31 09:40:00,46.4,28.8,29.83,SE,136,2.0,2.0,50,0.00,,,0.00,Wunderground v.1.15,2013-01-31 14:40:00,
2013-01-31 09:45:00,46.4,28.8,29.83,NNW,344,3.0,3.0,50,0.00,,,0.00,Wunderground v.1.15,2013-01-31 14:45:00,
2013-01-31 09:50:00,46.4,28.8,29.83,North,9,2.0,2.0,50,0.00,,,0.00,Wunderground v.1.15,2013-01-31 14:50:00,
2013-01-31 09:55:00,46.5,29.3,29.84,West,281,1.0,5.0,51,0.00,,,0.00,Wunderground v.1.15,2013-01-31 14:55:00,
2013-01-31 10:05:00,46.6,27.9,29.84,NNE,24,2.0,3.0,48,0.00,,,0.00,Wunderground v.1.15,2013-01-31 15:05:00,
2013-01-31 10:10:00,46.7,28.0,29.84,SW,214,2.0,2.0,48,0.00,,,0.00,Wunderground v.1.15,2013-01-31 15:10:00,
2013-01-31 10:15:00,46.7,28.5,29.84,NW,314,2.0,7.0,49,0.00,,,0.00,Wunderground v.1.15,2013-01-31 15:15:00,
2013-01-31 10:20:00,46.9,28.7,29.84,North,349,1.0,1.0,49,0.00,,,0.00,Wunderground v.1.15,2013-01-31 15:20:00,
2013-01-31 10:25:00,47.1,28.9,29.85,North,5,1.0,2.0,49,0.00,,,0.00,Wunderground v.1.15,2013-01-31 15:25:00,
2013-01-31 10:35:00,47.9,29.1,29.85,NE,45,1.0,7.0,48,0.00,,,0.00,Wunderground v.1.15,2013-01-31 15:35:00,
2013-01-31 10:40:00,48.0,28.7,29.86,North,355,1.0,1.0,47,0.00,,,0.00,Wunderground v.1.15,2013-01-31 15:40:00,
2013-01-31 10:45:00,47.8,29.0,29.86,North,349,1.0,7.0,48,0.00,,,0.00,Wunderground v.1.15,2013-01-31 15:45:00,
2013-01-31 10:50:00,48.0,28.7,29.86,NNW,336,2.0,2.0,47,0.00,,,0.00,Wunderground v.1.15,2013-01-31 15:50:00,
2013-01-31 10:55:00,48.3,29.0,29.86,West,279,1.0,7.0,47,0.00,,,0.00,Wunderground v.1.15,2013-01-31 15:55:00,
2013-01-31 11:00:00,48.9,29.5,29.86,ENE,71,0.0,7.0,47,0.00,,,0.00,Wunderground v.1.15,2013-01-31 16:00:00,
2013-01-31 11:05:00,48.8,28.4,29.86,ENE,74,1.0,7.0,45,0.00,,,0.00,Wunderground v.1.15,2013-01-31 16:05:00,
2013-01-31 11:10:00,48.5,28.1,29.86,NW,321,1.0,7.0,45,0.00,,,0.00,Wunderground v.1.15,2013-01-31 16:10:00,
2013-01-31 11:15:00,48.7,28.3,29.86,North,5,1.0,7.0,45,0.00,,,0.00,Wunderground v.1.15,2013-01-31 16:15:00,
2013-01-31 11:20:00,48.9,26.8,29.86,NNE,28,1.0,1.0,42,0.00,,,0.00,Wunderground v.1.15,2013-01-31 16:20:00,
2013-01-31 11:25:00,49.2,27.6,29.86,South,172,1.0,7.0,43,0.00,,,0.00,Wunderground v.1.15,2013-01-31 16:25:00,
2013-01-31 11:30:00,49.5,27.3,29.86,North,360,1.0,7.0,42,0.00,,,0.00,Wunderground v.1.15,2013-01-31 16:30:00,
2013-01-31 11:40:00,49.5,26.7,29.86,SSE,157,1.0,7.0,41,0.00,,,0.00,Wunderground v.1.15,2013-01-31 16:40:00,
2013-01-31 11:45:00,49.6,26.2,29.86,South,182,1.0,7.0,40,0.00,,,0.00,Wunderground v.1.15,2013-01-31 16:45:00,
2013-01-31 11:50:00,49.8,26.4,29.86,NNE,15,2.0,7.0,40,0.00,,,0.00,Wunderground v.1.15,2013-01-31 16:50:00,
2013-01-31 11:55:00,49.9,25.9,29.85,SSE,159,2.0,7.0,39,0.00,,,0.00,Wunderground v.1.15,2013-01-31 16:55:00,
2013-01-31 12:00:00,50.1,25.5,29.85,North,5,2.0,7.0,38,0.00,,,0.00,Wunderground v.1.15,2013-01-31 17:00:00,
2013-01-31 12:10:00,49.8,25.2,29.85,North,5,2.0,2.0,38,0.00,,,0.00,Wunderground v.1.15,2013-01-31 17:10:00,
2013-01-31 12:15:00,50.1,26.1,29.85,NNE,26,2.0,7.0,39,0.00,,,0.00,Wunderground v.1.15,2013-01-31 17:15:00,
2013-01-31 12:20:00,50.3,25.0,29.84,NNE,16,2.0,2.0,37,0.00,,,0.00,Wunderground v.1.15,2013-01-31 17:20:00,
2013-01-31 12:25:00,50.6,26.5,29.84,North,5,1.0,7.0,39,0.00,,,0.00,Wunderground v.1.15,2013-01-31 17:25:00,
2013-01-31 12:30:00,50.8,27.3,29.84,NW,322,1.0,1.0,40,0.00,,,0.00,Wunderground v.1.15,2013-01-31 17:30:00,
2013-01-31 12:35:00,51.0,27.5,29.84,NNW,337,2.0,2.0,40,0.00,,,0.00,Wunderground v.1.15,2013-01-31 17:35:00,
2013-01-31 12:45:00,51.4,28.5,29.84,North,10,2.0,7.0,41,0.00,,,0.00,Wunderground v.1.15,2013-01-31 17:45:00,
2013-01-31 12:50:00,51.5,27.3,29.84,North,5,1.0,7.0,39,0.00,,,0.00,Wunderground v.1.15,2013-01-31 17:50:00,
2013-01-31 12:55:00,51.7,28.1,29.84,NW,317,1.0,7.0,40,0.00,,,0.00,Wunderground v.1.15,2013-01-31 17:55:00,
2013-01-31 13:00:00,51.7,28.1,29.84,North,10,1.0,1.0,40,0.00,,,0.00,Wunderground v.1.15,2013-01-31 18:00:00,
2013-01-31 13:05:00,51.9,27.7,29.84,SE,135,1.0,7.0,39,0.00,,,0.00,Wunderground v.1.15,2013-01-31 18:05:00,
2013-01-31 13:15:00,51.7,27.5,29.84,South,181,1.0,7.0,39,0.00,,,0.00,Wunderground v.1.15,2013-01-31 18:15:00,
2013-01-31 13:20:00,51.7,27.5,29.83,WNW,302,1.0,1.0,39,0.00,,,0.00,Wunderground v.1.15,2013-01-31 18:20:00,
2013-01-31 13:25:00,51.7,27.5,29.84,SE,137,1.0,7.0,39,0.00,,,0.00,Wunderground v.1.15,2013-01-31 18:25:00,
2013-01-31 13:30:00,51.7,27.5,29.83,North,355,1.0,7.0,39,0.00,,,0.00,Wunderground v.1.15,2013-01-31 18:30:00,
2013-01-31 13:35:00,51.7,27.5,29.84,North,355,1.0,7.0,39,0.00,,,0.00,Wunderground v.1.15,2013-01-31 18:35:00,
2013-01-31 13:40:00,51.8,27.0,29.84,NW,322,1.0,1.0,38,0.00,,,0.00,Wunderground v.1.15,2013-01-31 18:40:00,
2013-01-31 13:50:00,51.9,27.7,29.84,North,360,1.0,1.0,39,0.00,,,0.00,Wunderground v.1.15,2013-01-31 18:50:00,
2013-01-31 13:55:00,51.8,27.6,29.84,NNE,17,1.0,7.0,39,0.00,,,0.00,Wunderground v.1.15,2013-01-31 18:55:00,
2013-01-31 14:00:00,51.8,26.3,29.84,SE,130,1.0,1.0,37,0.00,,,0.00,Wunderground v.1.15,2013-01-31 19:00:00,
2013-01-31 14:05:00,51.6,26.1,29.85,SSE,150,1.0,4.0,37,0.00,,,0.00,Wunderground v.1.15,2013-01-31 19:05:00,
2013-01-31 14:10:00,51.5,26.7,29.84,SE,140,1.0,1.0,38,0.00,,,0.00,Wunderground v.1.15,2013-01-31 19:10:00,
2013-01-31 14:15:00,51.5,26.7,29.85,NNE,15,1.0,7.0,38,0.00,,,0.00,Wunderground v.1.15,2013-01-31 19:15:00,
2013-01-31 14:20:00,51.4,26.6,29.85,North,360,2.0,2.0,38,0.00,,,0.00,Wunderground v.1.15,2013-01-31 19:20:00,
2013-01-31 14:25:00,51.4,26.6,29.85,NNW,336,1.0,5.0,38,0.00,,,0.00,Wunderground v.1.15,2013-01-31 19:25:00,
2013-01-31 14:30:00,51.4,26.0,29.85,North,360,1.0,7.0,37,0.00,,,0.00,Wunderground v.1.15,2013-01-31 19:30:00,
2013-01-31 14:35:00,51.4,26.0,29.85,North,9,2.0,7.0,37,0.00,,,0.00,Wunderground v.1.15,2013-01-31 19:35:00,
2013-01-31 14:40:00,51.4,26.0,29.86,NW,309,1.0,7.0,37,0.00,,,0.00,Wunderground v.1.15,2013-01-31 19:40:00,
2013-01-31 14:50:00,51.3,25.2,29.86,NE,35,2.0,7.0,36,0.00,,,0.00,Wunderground v.1.15,2013-01-31 19:50:00,
2013-01-31 14:55:00,51.2,25.1,29.86,West,277,2.0,7.0,36,0.00,,,0.00,Wunderground v.1.15,2013-01-31 19:55:00,
2013-01-31 15:00:00,51.2,25.8,29.86,North,5,1.0,7.0,37,0.00,,,0.00,Wunderground v.1.15,2013-01-31 20:00:00,
2013-01-31 15:05:00,51.2,25.8,29.87,WSW,252,1.0,7.0,37,0.00,,,0.00,Wunderground v.1.15,2013-01-31 20:05:00,
2013-01-31 15:10:00,51.3,26.5,29.87,NNW,336,0.0,7.0,38,0.00,,,0.00,Wunderground v.1.15,2013-01-31 20:10:00,
2013-01-31 15:15:00,51.3,25.2,29.87,East,86,1.0,7.0,36,0.00,,,0.00,Wunderground v.1.15,2013-01-31 20:15:00,
2013-01-31 15:25:00,51.2,25.1,29.87,NW,315,1.0,7.0,36,0.00,,,0.00,Wunderground v.1.15,2013-01-31 20:25:00,
2013-01-31 15:30:00,51.1,25.0,29.87,NNE,18,2.0,2.0,36,0.00,,,0.00,Wunderground v.1.15,2013-01-31 20:30:00,
2013-01-31 15:35:00,51.0,25.0,29.88,NNE,17,1.0,7.0,36,0.00,,,0.00,Wunderground v.1.15,2013-01-31 20:35:00,
2013-01-31 15:40:00,50.9,25.5,29.87,South,184,1.0,1.0,37,0.00,,,0.00,Wunderground v.1.15,2013-01-31 20:40:00,
2013-01-31 15:45:00,50.9,26.2,29.88,SE,146,0.0,7.0,38,0.00,,,0.00,Wunderground v.1.15,2013-01-31 20:45:00,
2013-01-31 15:55:00,50.8,26.1,29.88,WSW,246,1.0,7.0,38,0.00,,,0.00,Wunderground v.1.15,2013-01-31 20:55:00,
2013-01-31 16:00:00,50.8,26.1,29.89,NW,315,1.0,1.0,38,0.00,,,0.00,Wunderground v.1.15,2013-01-31 21:00:00,
2013-01-31 16:05:00,50.8,26.1,29.89,NNE,13,1.0,7.0,38,0.00,,,0.00,Wunderground v.1.15,2013-01-31 21:05:00,
2013-01-31 16:10:00,50.8,26.7,29.89,SSW,211,1.0,7.0,39,0.00,,,0.00,Wunderground v.1.15,2013-01-31 21:10:00,
2013-01-31 16:15:00,50.8,26.7,29.89,NNW,333,1.0,7.0,39,0.00,,,0.00,Wunderground v.1.15,2013-01-31 21:15:00,
2013-01-31 16:20:00,50.7,26.6,29.89,NNW,336,0.0,7.0,39,0.00,,,0.00,Wunderground v.1.15,2013-01-31 21:20:00,
2013-01-31 16:25:00,50.7,26.0,29.90,NW,319,0.0,7.0,38,0.00,,,0.00,Wunderground v.1.15,2013-01-31 21:25:00,
2013-01-31 16:30:00,50.6,26.5,29.90,NNE,22,0.0,7.0,39,0.00,,,0.00,Wunderground v.1.15,2013-01-31 21:30:00,
2013-01-31 16:35:00,50.5,25.2,29.90,NNE,14,1.0,7.0,37,0.00,,,0.00,Wunderground v.1.15,2013-01-31 21:35:00,
2013-01-31 16:40:00,50.3,25.0,29.91,North,360,1.0,7.0,37,0.00,,,0.00,Wunderground v.1.15,2013-01-31 21:40:00,
2013-01-31 16:45:00,50.1,24.8,29.91,NNW,336,1.0,7.0,37,0.00,,,0.00,Wunderground v.1.15,2013-01-31 21:45:00,
2013-01-31 16:50:00,50.1,24.8,29.91,South,172,1.0,1.0,37,0.00,,,0.00,Wunderground v.1.15,2013-01-31 21:50:00,
2013-01-31 17:00:00,49.8,24.5,29.92,ESE,105,1.0,1.0,37,0.00,,,0.00,Wunderground v.1.15,2013-01-31 22:00:00,
2013-01-31 17:05:00,49.7,25.1,29.92,NW,325,0.0,7.0,38,0.00,,,0.00,Wunderground v.1.15,2013-01-31 22:05:00,
2013-01-31 17:10:00,49.6,25.0,29.92,NW,319,0.0,7.0,38,0.00,,,0.00,Wunderground v.1.15,2013-01-31 22:10:00,
2013-01-31 17:15:00,49.5,24.3,29.92,NW,311,0.0,7.0,37,0.00,,,0.00,Wunderground v.1.15,2013-01-31 22:15:00,
2013-01-31 17:20:00,49.4,24.8,29.92,NNW,341,0.0,7.0,38,0.00,,,0.00,Wunderground v.1.15,2013-01-31 22:20:00,
2013-01-31 17:30:00,49.0,24.5,29.92,NNE,19,0.0,7.0,38,0.00,,,0.00,Wunderground v.1.15,2013-01-31 22:30:00,
2013-01-31 17:35:00,48.8,24.3,29.93,NW,313,1.0,7.0,38,0.00,,,0.00,Wunderground v.1.15,2013-01-31 22:35:00,
2013-01-31 17:40:00,48.6,24.7,29.93,NW,314,0.0,7.0,39,0.00,,,0.00,Wunderground v.1.15,2013-01-31 22:40:00,
2013-01-31 17:45:00,48.5,24.6,29.93,NW,314,0.0,7.0,39,0.00,,,0.00,Wunderground v.1.15,2013-01-31 22:45:00,
2013-01-31 17:50:00,48.3,24.5,29.93,NW,314,0.0,7.0,39,0.00,,,0.00,Wunderground v.1.15,2013-01-31 22:50:00,
2013-01-31 18:00:00,48.0,24.8,29.94,NW,314,0.0,7.0,40,0.00,,,0.00,Wunderground v.1.15,2013-01-31 23:00:00,
2013-01-31 18:05:00,47.8,24.6,29.94,NW,314,0.0,7.0,40,0.00,,,0.00,Wunderground v.1.15,2013-01-31 23:05:00,
2013-01-31 18:10:00,47.7,25.7,29.94,NW,314,0.0,7.0,42,0.00,,,0.00,Wunderground v.1.15,2013-01-31 23:10:00,
2013-01-31 18:15:00,47.5,25.5,29.95,NW,314,0.0,7.0,42,0.00,,,0.00,Wunderground v.1.15,2013-01-31 23:15:00,
2013-01-31 18:20:00,47.3,25.9,29.95,NW,314,0.0,7.0,43,0.00,,,0.00,Wunderground v.1.15,2013-01-31 23:20:00,
2013-01-31 18:30:00,46.9,26.6,29.95,NW,314,0.0,7.0,45,0.00,,,0.00,Wunderground v.1.15,2013-01-31 23:30:00,
2013-01-31 18:35:00,46.6,26.4,29.96,NW,314,0.0,7.0,45,0.00,,,0.00,Wunderground v.1.15,2013-01-31 23:35:00,
2013-01-31 18:40:00,46.3,25.6,29.96,NW,314,0.0,7.0,44,0.00,,,0.00,Wunderground v.1.15,2013-01-31 23:40:00,
2013-01-31 18:45:00,46.1,26.4,29.97,NW,314,0.0,7.0,46,0.00,,,0.00,Wunderground v.1.15,2013-01-31 23:45:00,
2013-01-31 18:50:00,45.7,25.5,29.97,NW,314,0.0,7.0,45,0.00,,,0.00,Wunderground v.1.15,2013-01-31 23:50:00,
2013-01-31 18:55:00,45.4,25.8,29.97,NW,314,0.0,7.0,46,0.00,,,0.00,Wunderground v.1.15,2013-01-31 23:55:00,
2013-01-31 19:00:00,45.2,26.7,29.97,NW,314,0.0,7.0,48,0.00,,,0.00,Wunderground v.1.15,2013-02-01 00:00:00,
2013-01-31 19:05:00,45.0,26.5,29.97,NW,314,0.0,7.0,48,0.00,,,0.00,Wunderground v.1.15,2013-02-01 00:05:00,
2013-01-31 19:10:00,44.9,26.4,29.98,NW,314,0.0,7.0,48,0.00,,,0.00,Wunderground v.1.15,2013-02-01 00:10:00,
2013-01-31 19:15:00,44.6,26.1,29.98,NW,314,0.0,7.0,48,0.00,,,0.00,Wunderground v.1.15,2013-02-01 00:15:00,
2013-01-31 19:25:00,44.3,27.3,29.99,NW,314,0.0,7.0,51,0.00,,,0.00,Wunderground v.1.15,2013-02-01 00:25:00,
2013-01-31 19:30:00,44.1,27.1,29.99,NW,314,0.0,7.0,51,0.00,,,0.00,Wunderground v.1.15,2013-02-01 00:30:00,
2013-01-31 19:35:00,44.0,27.0,29.99,NW,311,0.0,7.0,51,0.00,,,0.00,Wunderground v.1.15,2013-02-01 00:35:00,
2013-01-31 19:40:00,43.8,27.3,29.99,NW,311,0.0,7.0,52,0.00,,,0.00,Wunderground v.1.15,2013-02-01 00:40:00,
2013-01-31 19:45:00,43.6,28.0,29.99,NW,311,0.0,7.0,54,0.00,,,0.00,Wunderground v.1.15,2013-02-01 00:45:00,
2013-01-31 19:50:00,43.4,27.4,30.00,NW,311,0.0,7.0,53,0.00,,,0.00,Wunderground v.1.15,2013-02-01 00:50:00,
2013-01-31 19:55:00,43.3,28.6,30.00,NW,311,0.0,7.0,56,0.00,,,0.00,Wunderground v.1.15,2013-02-01 00:55:00,
2013-01-31 20:00:00,43.1,27.6,30.00,NW,311,0.0,7.0,54,0.00,,,0.00,Wunderground v.1.15,2013-02-01 01:00:00,
2013-01-31 20:05:00,42.9,27.8,30.00,NW,311,0.0,7.0,55,0.00,,,0.00,Wunderground v.1.15,2013-02-01 01:05:00,
2013-01-31 20:10:00,42.8,27.7,30.00,NW,311,0.0,7.0,55,0.00,,,0.00,Wunderground v.1.15,2013-02-01 01:10:00,
2013-01-31 20:15:00,42.6,28.0,30.00,NW,311,0.0,7.0,56,0.00,,,0.00,Wunderground v.1.15,2013-02-01 01:15:00,
2013-01-31 20:20:00,42.4,27.8,30.00,NW,311,0.0,7.0,56,0.00,,,0.00,Wunderground v.1.15,2013-02-01 01:20:00,
2013-01-31 20:30:00,42.1,28.8,30.00,NW,311,0.0,7.0,59,0.00,,,0.00,Wunderground v.1.15,2013-02-01 01:30:00,
2013-01-31 20:35:00,41.9,28.6,30.01,NW,311,0.0,7.0,59,0.00,,,0.00,Wunderground v.1.15,2013-02-01 01:35:00,
2013-01-31 20:40:00,41.7,28.4,30.01,NW,311,0.0,7.0,59,0.00,,,0.00,Wunderground v.1.15,2013-02-01 01:40:00,
2013-01-31 20:45:00,41.5,28.2,30.01,NW,311,0.0,7.0,59,0.00,,,0.00,Wunderground v.1.15,2013-02-01 01:45:00,
2013-01-31 20:55:00,41.2,28.4,30.01,NW,311,0.0,7.0,60,0.00,,,0.00,Wunderground v.1.15,2013-02-01 01:55:00,
2013-01-31 21:00:00,41.1,27.4,30.02,NW,311,0.0,7.0,58,0.00,,,0.00,Wunderground v.1.15,2013-02-01 02:00:00,
2013-01-31 21:05:00,41.0,27.3,30.02,NW,311,0.0,7.0,58,0.00,,,0.00,Wunderground v.1.15,2013-02-01 02:05:00,
2013-01-31 21:10:00,40.8,27.2,30.02,NW,311,0.0,7.0,58,0.00,,,0.00,Wunderground v.1.15,2013-02-01 02:10:00,
2013-01-31 21:15:00,40.8,27.6,30.02,NW,311,0.0,7.0,59,0.00,,,0.00,Wunderground v.1.15,2013-02-01 02:15:00,
2013-01-31 21:20:00,40.7,27.5,30.02,NW,311,0.0,7.0,59,0.00,,,0.00,Wunderground v.1.15,2013-02-01 02:20:00,
2013-01-31 21:25:00,40.7,27.9,30.01,NW,311,0.0,7.0,60,0.00,,,0.00,Wunderground v.1.15,2013-02-01 02:25:00,
2013-01-31 21:30:00,40.6,28.2,30.01,NW,311,0.0,7.0,61,0.00,,,0.00,Wunderground v.1.15,2013-02-01 02:30:00,
2013-01-31 21:35:00,40.5,27.7,30.01,NW,311,0.0,7.0,60,0.00,,,0.00,Wunderground v.1.15,2013-02-01 02:35:00,
2013-01-31 21:40:00,40.4,28.0,30.01,NW,311,0.0,7.0,61,0.00,,,0.00,Wunderground v.1.15,2013-02-01 02:40:00,
2013-01-31 21:45:00,40.2,28.2,30.01,NW,311,0.0,7.0,62,0.00,,,0.00,Wunderground v.1.15,2013-02-01 02:45:00,
2013-01-31 21:50:00,40.1,27.7,30.01,NW,311,0.0,7.0,61,0.00,,,0.00,Wunderground v.1.15,2013-02-01 02:50:00,
2013-01-31 21:55:00,39.8,28.2,30.01,NW,311,0.0,7.0,63,0.00,,,0.00,Wunderground v.1.15,2013-02-01 02:55:00,
2013-01-31 22:05:00,39.6,27.6,30.01,NW,311,0.0,7.0,62,0.00,,,0.00,Wunderground v.1.15,2013-02-01 03:05:00,
2013-01-31 22:10:00,39.4,27.8,30.01,NW,311,0.0,7.0,63,0.00,,,0.00,Wunderground v.1.15,2013-02-01 03:10:00,
2013-01-31 22:15:00,39.2,27.7,30.01,NW,311,0.0,7.0,63,0.00,,,0.00,Wunderground v.1.15,2013-02-01 03:15:00,
2013-01-31 22:20:00,38.9,27.8,30.01,NW,311,0.0,7.0,64,0.00,,,0.00,Wunderground v.1.15,2013-02-01 03:20:00,
2013-01-31 22:25:00,38.6,27.5,30.01,NW,311,0.0,7.0,64,0.00,,,0.00,Wunderground v.1.15,2013-02-01 03:25:00,
2013-01-31 22:35:00,38.1,27.0,30.02,NW,311,0.0,7.0,64,0.00,,,0.00,Wunderground v.1.15,2013-02-01 03:35:00,
2013-01-31 22:40:00,37.9,26.8,30.01,NW,311,0.0,7.0,64,0.00,,,0.00,Wunderground v.1.15,2013-02-01 03:40:00,
2013-01-31 22:45:00,37.6,26.5,30.02,NW,311,0.0,7.0,64,0.00,,,0.00,Wunderground v.1.15,2013-02-01 03:45:00,
2013-01-31 22:50:00,37.4,26.7,30.02,NW,311,0.0,7.0,65,0.00,,,0.00,Wunderground v.1.15,2013-02-01 03:50:00,
2013-01-31 22:55:00,37.2,27.6,30.02,NW,311,0.0,7.0,68,0.00,,,0.00,Wunderground v.1.15,2013-02-01 03:55:00,
2013-01-31 23:00:00,37.1,27.9,30.02,NW,311,0.0,7.0,69,0.00,,,0.00,Wunderground v.1.15,2013-02-01 04:00:00,
2013-01-31 23:10:00,36.9,27.7,30.03,NW,311,0.0,7.0,69,0.00,,,0.00,Wunderground v.1.15,2013-02-01 04:10:00,
2013-01-31 23:15:00,36.8,27.9,30.03,NW,311,0.0,7.0,70,0.00,,,0.00,Wunderground v.1.15,2013-02-01 04:15:00,
2013-01-31 23:20:00,36.8,27.9,30.03,NW,311,0.0,7.0,70,0.00,,,0.00,Wunderground v.1.15,2013-02-01 04:20:00,
2013-01-31 23:25:00,36.7,27.5,30.03,NW,311,0.0,7.0,69,0.00,,,0.00,Wunderground v.1.15,2013-02-01 04:25:00,
2013-01-31 23:30:00,36.6,27.0,30.03,NW,311,0.0,7.0,68,0.00,,,0.00,Wunderground v.1.15,2013-02-01 04:30:00,
2013-01-31 23:40:00,36.6,27.0,30.03,SSW,209,0.0,7.0,68,0.00,,,0.00,Wunderground v.1.15,2013-02-01 04:40:00,
2013-01-31 23:45:00,36.7,27.1,30.02,SSW,209,0.0,7.0,68,0.00,,,0.00,Wunderground v.1.15,2013-02-01 04:45:00,
2013-01-31 23:50:00,36.8,27.2,30.03,SSW,209,0.0,7.0,68,0.00,,,0.00,Wunderground v.1.15,2013-02-01 04:50:00,
2013-01-31 23:55:00,36.9,27.3,30.03,SSW,209,0.0,7.0,68,0.00,,,0.00,Wunderground v.1.15,2013-02-01 04:55:00,